Time;durP1;ratioP1;P1;durP2;ratioP2;P2;SDS_P1;SDS_P2;PMS_P1;PMS_P2;Temp;Humidity;BMP_temperature;BMP_pressure;BME280_temperature;BME280_humidity;BME280_pressure;Samples;Min_cycle;Max_cycle;Signal;HPM_P1;HPM_P2
2022/10/11 07:21:27;;;;;;;48.70;31.27;;;13.90;99.90;;;;;;6161404;23;20498;-86
2022/10/11 07:24:04;;;;;;;45.40;31.40;;;13.90;99.90;;;;;;6173455;23;20383;-85
2022/10/11 07:26:32;;;;;;;49.80;33.20;;;13.80;99.90;;;;;;6162903;23;20430;-79
2022/10/11 07:28:58;;;;;;;42.07;30.37;;;13.70;99.90;;;;;;6187194;23;20407;-79
2022/10/11 07:31:27;;;;;;;48.73;34.53;;;13.80;99.90;;;;;;6187599;23;20410;-79
2022/10/11 07:33:54;;;;;;;51.03;34.33;;;13.80;99.90;;;;;;6187523;23;20467;-79
2022/10/11 07:36:23;;;;;;;47.53;30.40;;;13.90;99.90;;;;;;6191775;23;20417;-78
2022/10/11 07:38:50;;;;;;;48.17;33.77;;;13.90;99.90;;;;;;6196345;23;20402;-82
2022/10/11 07:41:25;;;;;;;47.33;33.67;;;13.90;99.90;;;;;;6200876;23;20445;-84
2022/10/11 07:46:38;;;;;;;50.43;33.73;;;13.90;99.90;;;;;;6175381;23;20770;-83
2022/10/11 07:49:05;;;;;;;47.57;32.40;;;13.90;99.90;;;;;;6192135;23;20398;-83
2022/10/11 07:51:33;;;;;;;41.97;29.40;;;13.90;99.90;;;;;;6194623;23;20414;-80
2022/10/11 07:54:00;;;;;;;42.00;32.23;;;14.00;99.90;;;;;;6196108;23;20402;-84
2022/10/11 07:56:28;;;;;;;45.87;30.90;;;14.00;99.90;;;;;;6195888;23;20448;-83
2022/10/11 07:58:57;;;;;;;46.40;32.77;;;14.00;99.90;;;;;;6195836;23;20473;-83
2022/10/11 08:01:25;;;;;;;47.73;33.40;;;14.00;99.90;;;;;;6194032;23;20490;-83
2022/10/11 08:03:53;;;;;;;42.20;31.47;;;13.90;99.90;;;;;;6197682;23;20532;-84
2022/10/11 08:06:22;;;;;;;42.57;32.80;;;14.00;99.90;;;;;;6197018;23;20506;-83
2022/10/11 08:08:50;;;;;;;45.87;29.30;;;13.90;99.90;;;;;;6195400;23;20410;-83
2022/10/11 08:11:21;;;;;;;43.27;32.10;;;14.00;99.90;;;;;;6196392;23;20481;-83
2022/10/11 08:13:48;;;;;;;50.90;32.80;;;14.00;99.90;;;;;;6196193;23;20409;-82
2022/10/11 08:16:16;;;;;;;58.10;35.07;;;14.00;99.90;;;;;;6193883;23;20414;-82
2022/10/11 08:18:43;;;;;;;52.90;33.23;;;14.00;99.90;;;;;;6195101;23;20427;-83
2022/10/11 08:21:11;;;;;;;45.57;32.10;;;14.20;99.90;;;;;;6193903;23;20433;-79
2022/10/11 08:23:38;;;;;;;40.57;29.97;;;14.30;99.90;;;;;;6195313;23;20439;-80
2022/10/11 08:26:06;;;;;;;48.50;29.77;;;14.30;99.90;;;;;;6195497;23;20414;-79
2022/10/11 08:28:33;;;;;;;35.40;29.37;;;14.20;99.90;;;;;;6216620;23;20473;-80
2022/10/11 08:31:03;;;;;;;41.07;29.83;;;14.10;99.90;;;;;;6221481;23;20412;-82
2022/10/11 08:33:30;;;;;;;44.57;29.17;;;14.20;99.90;;;;;;6220504;23;20501;-80
2022/10/11 08:35:57;;;;;;;47.60;31.13;;;14.40;99.90;;;;;;6218883;23;20435;-81
2022/10/11 08:38:24;;;;;;;40.60;29.60;;;14.30;99.90;;;;;;6217932;23;20426;-80
2022/10/11 08:40:54;;;;;;;46.20;30.70;;;14.40;99.90;;;;;;6217100;23;20415;-81
2022/10/11 08:43:31;;;;;;;33.33;26.20;;;14.30;99.90;;;;;;6217300;23;20504;-80
2022/10/11 08:46:01;;;;;;;37.60;27.50;;;14.30;99.90;;;;;;6219641;23;20393;-79
2022/10/11 08:48:34;;;;;;;39.43;27.90;;;14.30;99.90;;;;;;6220356;23;20425;-82
2022/10/11 08:51:03;;;;;;;38.47;27.50;;;14.40;99.90;;;;;;6219726;23;20399;-80
2022/10/11 08:53:43;;;;;;;32.77;26.20;;;14.60;99.90;;;;;;6215965;23;20911;-79
2022/10/11 08:56:11;;;;;;;36.17;25.07;;;14.70;99.90;;;;;;6217684;23;20742;-81
2022/10/11 08:58:46;;;;;;;48.63;27.20;;;14.70;99.90;;;;;;6217909;23;20438;-81
2022/10/11 09:01:16;;;;;;;36.10;25.80;;;14.70;99.90;;;;;;6219045;23;20414;-81
2022/10/11 09:03:46;;;;;;;33.43;24.63;;;14.80;99.90;;;;;;6220069;23;20445;-82
2022/10/11 09:06:28;;;;;;;33.40;26.93;;;14.80;99.90;;;;;;6219971;23;20401;-81
2022/10/11 09:09:25;;;;;;;34.20;25.40;;;14.70;99.90;;;;;;6218867;23;20395;-81
2022/10/11 09:12:06;;;;;;;37.43;24.97;;;14.70;99.90;;;;;;6219181;23;20397;-81
2022/10/11 09:15:02;;;;;;;33.90;24.83;;;14.60;99.90;;;;;;6218809;23;20389;-81
2022/10/11 09:17:46;;;;;;;35.80;27.53;;;14.70;99.90;;;;;;6219443;23;20429;-81
2022/10/11 09:20:51;;;;;;;30.50;25.73;;;14.50;99.90;;;;;;6219141;23;20393;-82
2022/10/11 09:23:35;;;;;;;37.63;26.97;;;14.40;99.90;;;;;;6200373;23;20446;-81
2022/10/11 09:26:06;;;;;;;37.40;26.10;;;14.50;99.90;;;;;;6218029;23;20404;-81
2022/10/11 09:28:47;;;;;;;35.17;27.90;;;14.60;99.90;;;;;;6216696;23;20527;-81
2022/10/11 09:31:16;;;;;;;37.07;26.60;;;14.70;99.90;;;;;;6218742;23;20439;-81
2022/10/11 09:33:46;;;;;;;32.27;24.53;;;14.70;99.90;;;;;;6217976;23;20405;-81
2022/10/11 09:36:19;;;;;;;36.60;25.60;;;14.60;99.90;;;;;;6219242;23;20417;-79
2022/10/11 09:38:51;;;;;;;31.80;25.27;;;14.60;99.90;;;;;;6218193;23;20487;-80
2022/10/11 09:41:26;;;;;;;33.43;23.77;;;14.70;99.90;;;;;;6222998;23;20403;-82
2022/10/11 09:43:54;;;;;;;31.40;22.07;;;14.90;99.90;;;;;;6219349;23;20431;-83
2022/10/11 09:46:29;;;;;;;30.23;23.33;;;14.70;99.90;;;;;;6220454;23;20888;-82
2022/10/11 09:48:57;;;;;;;37.90;25.53;;;14.70;99.90;;;;;;6219295;23;20430;-81
2022/10/11 09:51:34;;;;;;;35.47;25.30;;;14.60;99.90;;;;;;6219628;23;20411;-82
2022/10/11 09:54:04;;;;;;;28.50;23.77;;;14.60;99.90;;;;;;6218944;23;20419;-81
2022/10/11 09:56:33;;;;;;;31.83;24.83;;;14.50;99.90;;;;;;6219585;23;20417;-80
2022/10/11 09:59:34;;;;;;;36.37;23.37;;;14.60;99.90;;;;;;6222280;23;20411;-83
2022/10/11 10:02:23;;;;;;;34.67;25.70;;;14.50;99.90;;;;;;6221854;23;20955;-83
2022/10/11 10:05:02;;;;;;;32.50;23.37;;;14.50;99.90;;;;;;6222088;23;20468;-80
2022/10/11 10:07:31;;;;;;;34.67;27.00;;;14.50;99.90;;;;;;6217147;23;20425;-80
2022/10/11 10:09:58;;;;;;;31.40;24.37;;;14.50;99.90;;;;;;6216613;23;20412;-80
2022/10/11 10:12:27;;;;;;;31.27;22.37;;;14.70;99.90;;;;;;6215548;23;20689;-81
2022/10/11 10:14:56;;;;;;;31.93;21.63;;;14.90;99.90;;;;;;6215726;23;20434;-81
2022/10/11 10:17:25;;;;;;;34.23;24.80;;;14.90;99.90;;;;;;6215517;23;20429;-79
2022/10/11 10:19:54;;;;;;;33.23;22.10;;;14.70;99.90;;;;;;6216591;23;20410;-79
2022/10/11 10:22:23;;;;;;;31.63;24.43;;;14.70;99.90;;;;;;6217732;23;20424;-80
2022/10/11 10:24:51;;;;;;;29.93;22.30;;;14.60;99.90;;;;;;6218417;23;20809;-80
2022/10/11 10:27:20;;;;;;;31.53;24.33;;;14.70;99.90;;;;;;6216757;23;20442;-79
2022/10/11 10:30:12;;;;;;;31.40;22.83;;;14.70;99.90;;;;;;6217614;23;20408;-78
2022/10/11 10:32:46;;;;;;;36.97;23.03;;;14.80;99.90;;;;;;6217369;23;20434;-79
2022/10/11 10:35:25;;;;;;;30.93;21.97;;;15.00;99.90;;;;;;6220018;23;20397;-78
2022/10/11 10:37:58;;;;;;;33.20;22.10;;;15.10;99.90;;;;;;6225195;23;20448;-78
2022/10/11 10:40:32;;;;;;;29.97;21.80;;;15.00;99.90;;;;;;6225088;23;20914;-78
2022/10/11 10:42:59;;;;;;;34.43;22.00;;;14.90;99.90;;;;;;6219740;23;20424;-79
2022/10/11 10:45:35;;;;;;;30.13;22.70;;;15.00;99.90;;;;;;6218916;23;20404;-79
2022/10/11 10:48:16;;;;;;;30.93;20.63;;;14.90;99.90;;;;;;6217343;23;20429;-79
2022/10/11 10:50:52;;;;;;;31.07;22.47;;;14.80;99.90;;;;;;6217891;23;20418;-80
2022/10/11 10:53:27;;;;;;;34.83;21.33;;;14.70;99.90;;;;;;6217762;23;20386;-79
2022/10/11 10:56:05;;;;;;;26.43;21.83;;;14.70;99.90;;;;;;6217373;23;20863;-79
2022/10/11 10:58:57;;;;;;;28.30;22.80;;;14.70;99.90;;;;;;6217697;23;20437;-80
2022/10/11 11:01:27;;;;;;;34.63;22.03;;;14.90;99.90;;;;;;6217769;23;20442;-80
2022/10/11 11:04:05;;;;;;;37.20;25.77;;;15.00;99.90;;;;;;6218099;23;20443;-79
2022/10/11 11:06:42;;;;;;;28.43;21.50;;;15.00;99.90;;;;;;6217877;23;20394;-79
2022/10/11 11:09:25;;;;;;;27.40;19.70;;;15.10;99.90;;;;;;6218279;23;20715;-80
2022/10/11 11:12:06;;;;;;;27.53;22.20;;;15.10;99.90;;;;;;6218444;23;20401;-78
2022/10/11 11:14:44;;;;;;;24.90;19.57;;;15.20;99.90;;;;;;6218044;23;20425;-79
2022/10/11 11:17:22;;;;;;;35.47;22.47;;;15.40;99.90;;;;;;6217698;23;20428;-80
2022/10/11 11:20:03;;;;;;;29.67;21.63;;;15.40;99.90;;;;;;6217817;23;20388;-80
2022/10/11 11:22:42;;;;;;;25.87;21.80;;;15.40;99.90;;;;;;6217970;23;20473;-80
2022/10/11 11:25:24;;;;;;;30.30;20.23;;;15.50;99.90;;;;;;6217625;23;20437;-80
2022/10/11 11:28:02;;;;;;;30.63;21.07;;;15.70;99.90;;;;;;6217067;23;20450;-79
2022/10/11 11:30:40;;;;;;;29.07;20.20;;;15.70;99.90;;;;;;6217452;23;20401;-79
2022/10/11 11:33:15;;;;;;;29.67;21.13;;;15.60;99.90;;;;;;6217834;23;20389;-79
2022/10/11 11:35:47;;;;;;;29.53;19.77;;;15.70;99.90;;;;;;6217451;23;20389;-80
2022/10/11 11:38:20;;;;;;;27.53;21.63;;;15.70;99.90;;;;;;6217610;23;20428;-79
2022/10/11 11:40:51;;;;;;;27.00;21.97;;;15.70;99.90;;;;;;6219338;23;20469;-81
2022/10/11 11:43:26;;;;;;;24.80;18.60;;;15.90;99.90;;;;;;6218785;23;20389;-80
2022/10/11 11:45:57;;;;;;;26.17;18.40;;;15.90;99.90;;;;;;6218973;23;20412;-80
2022/10/11 11:48:25;;;;;;;23.47;18.90;;;16.00;99.90;;;;;;6217356;23;20464;-81
2022/10/11 11:51:01;;;;;;;21.23;16.37;;;15.80;99.90;;;;;;6218936;23;20410;-80
2022/10/11 11:53:43;;;;;;;26.30;18.83;;;15.90;99.90;;;;;;6217956;23;20476;-80
2022/10/11 11:56:18;;;;;;;26.83;19.07;;;16.00;99.90;;;;;;6217627;23;20477;-79
2022/10/11 11:58:53;;;;;;;29.90;18.83;;;15.70;99.90;;;;;;6217451;23;20393;-80
2022/10/11 12:01:28;;;;;;;23.87;18.50;;;15.50;99.90;;;;;;6217759;23;20399;-79
2022/10/11 12:03:58;;;;;;;24.27;18.87;;;15.50;99.90;;;;;;6217022;23;20482;-80
2022/10/11 12:06:30;;;;;;;23.07;16.50;;;15.40;99.90;;;;;;6217225;23;20390;-80
2022/10/11 12:09:07;;;;;;;22.03;19.57;;;15.40;99.90;;;;;;6216932;23;20397;-80
2022/10/11 12:11:45;;;;;;;21.87;19.57;;;15.30;99.90;;;;;;6217325;23;20406;-80
2022/10/11 12:14:18;;;;;;;25.90;18.23;;;15.30;99.90;;;;;;6216835;23;20777;-81
2022/10/11 12:17:15;;;;;;;21.40;18.90;;;15.30;99.90;;;;;;6217180;23;20432;-78
2022/10/11 12:19:57;;;;;;;23.53;17.40;;;15.30;99.90;;;;;;6216292;23;20410;-79
2022/10/11 12:22:50;;;;;;;22.17;15.73;;;15.30;99.90;;;;;;6216995;23;20394;-81
2022/10/11 12:25:42;;;;;;;24.60;18.67;;;15.30;99.90;;;;;;6216781;23;20433;-80
2022/10/11 12:28:47;;;;;;;20.50;17.87;;;15.20;99.90;;;;;;6216069;23;20446;-80
2022/10/11 12:31:21;;;;;;;18.70;16.30;;;15.10;99.90;;;;;;6216566;23;20438;-80
2022/10/11 12:33:52;;;;;;;21.47;16.70;;;15.10;99.90;;;;;;6216565;23;20392;-80
2022/10/11 12:36:32;;;;;;;20.30;17.30;;;15.00;99.90;;;;;;6216919;23;20391;-80
2022/10/11 12:39:38;;;;;;;18.03;14.37;;;15.10;99.90;;;;;;6216425;23;20385;-80
2022/10/11 12:42:29;;;;;;;19.30;14.83;;;15.00;99.90;;;;;;6205318;23;20413;-80
2022/10/11 12:45:33;;;;;;;16.93;15.17;;;15.00;99.90;;;;;;6215492;23;20468;-80
2022/10/11 12:48:12;;;;;;;17.07;14.90;;;15.10;99.90;;;;;;6153481;23;20433;-80
2022/10/11 12:50:48;;;;;;;20.60;14.87;;;15.30;99.90;;;;;;6216043;23;20435;-80
2022/10/11 12:53:35;;;;;;;21.13;14.40;;;15.40;99.90;;;;;;6216321;23;20395;-80
2022/10/11 12:56:09;;;;;;;21.47;15.10;;;15.50;99.90;;;;;;6216348;23;20394;-80
2022/10/11 12:58:40;;;;;;;18.23;15.73;;;15.60;99.90;;;;;;6216455;23;20532;-80
2022/10/11 13:01:16;;;;;;;17.27;15.57;;;15.60;99.90;;;;;;6217389;23;20513;-81
2022/10/11 13:03:44;;;;;;;14.97;13.30;;;15.60;99.90;;;;;;6218218;23;20389;-78
2022/10/11 13:06:15;;;;;;;16.47;13.77;;;15.90;99.90;;;;;;6217170;23;20412;-80
2022/10/11 13:08:44;;;;;;;15.37;13.80;;;16.10;99.90;;;;;;6216010;23;20451;-81
2022/10/11 13:11:18;;;;;;;16.37;14.53;;;16.20;99.90;;;;;;6217931;23;20415;-81
2022/10/11 13:13:53;;;;;;;14.93;12.43;;;16.50;99.90;;;;;;6216415;23;20432;-80
2022/10/11 13:16:22;;;;;;;20.37;12.53;;;16.70;99.90;;;;;;6216576;23;20485;-80
2022/10/11 13:18:53;;;;;;;19.23;12.27;;;17.10;99.90;;;;;;6216889;23;20434;-80
2022/10/11 13:21:28;;;;;;;14.57;12.50;;;17.70;99.90;;;;;;6217482;23;20479;-80
2022/10/11 13:23:56;;;;;;;16.40;11.07;;;18.20;99.90;;;;;;6216223;23;20407;-80
2022/10/11 13:26:23;;;;;;;11.80;10.60;;;18.40;99.90;;;;;;6217800;23;20895;-80
2022/10/11 13:28:51;;;;;;;14.10;12.60;;;18.40;99.90;;;;;;6220410;23;20393;-83
2022/10/11 13:31:18;;;;;;;12.93;11.43;;;18.10;99.90;;;;;;6220157;23;20415;-83
2022/10/11 13:33:46;;;;;;;14.07;12.57;;;17.90;99.90;;;;;;6224315;23;20414;-79
2022/10/11 13:36:16;;;;;;;13.50;12.00;;;17.70;99.90;;;;;;6241107;23;20392;-76
2022/10/11 13:38:51;;;;;;;14.37;11.87;;;17.30;99.90;;;;;;6240035;23;20423;-78
2022/10/11 13:41:18;;;;;;;15.27;12.10;;;17.30;99.90;;;;;;6223197;23;20387;-83
2022/10/11 13:43:45;;;;;;;13.40;12.07;;;17.10;99.90;;;;;;6220375;23;20414;-83
2022/10/11 13:46:19;;;;;;;14.30;12.87;;;16.80;99.90;;;;;;6219788;23;20972;-80
2022/10/11 13:48:46;;;;;;;19.27;14.00;;;16.70;99.90;;;;;;6219594;23;20387;-83
2022/10/11 13:51:17;;;;;;;16.10;12.37;;;16.50;99.90;;;;;;6221118;23;20410;-81
2022/10/11 13:53:57;;;;;;;14.40;12.43;;;16.50;99.90;;;;;;6220782;23;20395;-83
2022/10/11 13:56:24;;;;;;;17.80;14.03;;;16.50;99.90;;;;;;6223622;23;20390;-83
2022/10/11 13:58:54;;;;;;;14.50;10.80;;;16.50;99.90;;;;;;6222828;23;20413;-83
2022/10/11 14:01:25;;;;;;;13.20;11.23;;;16.40;99.90;;;;;;6223119;23;20766;-81
2022/10/11 14:03:57;;;;;;;12.00;10.77;;;16.30;99.90;;;;;;6223754;23;20402;-83
2022/10/11 14:06:25;;;;;;;17.33;10.90;;;16.40;99.90;;;;;;6223860;23;20389;-83
2022/10/11 14:08:55;;;;;;;15.20;13.40;;;16.40;99.90;;;;;;6223416;23;20422;-83
2022/10/11 14:11:36;;;;;;;14.33;12.93;;;16.50;99.90;;;;;;6223773;23;20477;-83
2022/10/11 14:14:28;;;;;;;14.27;12.87;;;16.30;99.90;;;;;;6223113;23;20407;-82
2022/10/11 14:16:58;;;;;;;15.47;13.37;;;16.20;99.90;;;;;;6222818;23;20762;-83
2022/10/11 14:19:25;;;;;;;15.77;14.17;;;16.10;99.90;;;;;;6222742;23;20481;-83
2022/10/11 14:21:52;;;;;;;16.30;14.47;;;15.90;99.90;;;;;;6222949;23;20430;-82
2022/10/11 14:24:19;;;;;;;18.67;13.40;;;15.90;99.90;;;;;;6223205;23;20405;-81
2022/10/11 14:26:49;;;;;;;13.57;11.77;;;15.80;99.90;;;;;;6223437;23;20443;-83
2022/10/11 14:29:21;;;;;;;16.07;13.50;;;15.90;99.90;;;;;;6223116;23;20408;-83
2022/10/11 14:31:49;;;;;;;13.43;12.03;;;15.80;99.90;;;;;;6224050;23;20401;-83
2022/10/11 14:34:19;;;;;;;16.30;12.30;;;15.90;99.90;;;;;;6223479;23;20435;-81
2022/10/11 14:36:47;;;;;;;18.90;13.63;;;15.90;99.90;;;;;;6223097;23;20948;-82
2022/10/11 14:39:16;;;;;;;15.60;13.10;;;15.80;99.90;;;;;;6222719;23;20409;-83
2022/10/11 14:41:43;;;;;;;14.03;12.80;;;15.90;99.90;;;;;;6223554;23;20492;-83
2022/10/11 14:44:10;;;;;;;15.83;12.77;;;15.80;99.90;;;;;;6223057;23;20409;-81
2022/10/11 14:46:39;;;;;;;14.00;12.50;;;15.80;99.90;;;;;;6224649;23;20413;-83
2022/10/11 14:49:11;;;;;;;14.43;11.90;;;15.80;99.90;;;;;;6224053;23;20409;-80
2022/10/11 14:51:39;;;;;;;16.83;11.40;;;16.00;99.90;;;;;;6223889;23;20397;-83
2022/10/11 14:54:06;;;;;;;12.50;11.23;;;16.00;99.90;;;;;;6223604;23;20394;-80
2022/10/11 14:56:33;;;;;;;19.50;11.83;;;16.10;99.90;;;;;;6223264;23;20408;-82
2022/10/11 14:59:00;;;;;;;12.70;11.47;;;16.10;99.90;;;;;;6223105;23;20916;-83
2022/10/11 15:01:26;;;;;;;13.73;12.47;;;16.10;99.90;;;;;;6224694;23;20412;-80
2022/10/11 15:03:53;;;;;;;16.73;11.93;;;16.10;99.90;;;;;;6225259;23;20411;-82
2022/10/11 15:06:23;;;;;;;15.70;11.97;;;16.00;99.90;;;;;;6223303;23;20448;-83
2022/10/11 15:08:51;;;;;;;14.17;12.80;;;15.90;99.90;;;;;;6223215;23;20477;-83
2022/10/11 15:11:20;;;;;;;12.93;11.63;;;15.90;99.90;;;;;;6222602;23;20409;-82
2022/10/11 15:13:48;;;;;;;13.83;12.57;;;15.80;99.90;;;;;;6223414;23;20428;-83
2022/10/11 15:16:17;;;;;;;15.83;14.20;;;15.60;99.90;;;;;;6222684;23;20405;-80
2022/10/11 15:18:49;;;;;;;13.67;11.90;;;15.60;99.90;;;;;;6222052;23;20916;-83
2022/10/11 15:21:17;;;;;;;14.13;12.40;;;15.60;99.90;;;;;;6223142;23;20493;-82
2022/10/11 15:23:44;;;;;;;13.73;12.33;;;15.50;99.90;;;;;;6223078;23;20416;-83
2022/10/11 15:26:13;;;;;;;14.07;11.87;;;15.50;99.90;;;;;;6223215;23;20449;-82
2022/10/11 15:28:41;;;;;;;14.93;12.40;;;15.40;99.90;;;;;;6222259;23;20457;-83
2022/10/11 15:31:09;;;;;;;17.03;13.77;;;15.40;99.90;;;;;;6222876;23;20773;-82
2022/10/11 15:33:36;;;;;;;15.00;13.30;;;15.40;99.90;;;;;;6221805;23;20409;-82
2022/10/11 15:36:03;;;;;;;16.30;12.63;;;15.50;99.90;;;;;;6222084;23;20408;-83
2022/10/11 15:38:29;;;;;;;13.03;11.77;;;15.40;99.90;;;;;;6222049;23;20522;-80
2022/10/11 15:40:57;;;;;;;16.87;12.33;;;15.60;99.90;;;;;;6222614;23;20409;-82
2022/10/11 15:43:26;;;;;;;13.60;12.03;;;15.60;99.90;;;;;;6223280;23;20426;-80
2022/10/11 15:45:53;;;;;;;14.10;12.80;;;15.60;99.90;;;;;;6221565;23;20448;-82
2022/10/11 15:48:22;;;;;;;12.80;11.70;;;15.60;99.90;;;;;;6222777;23;20761;-82
2022/10/11 15:50:50;;;;;;;19.77;14.57;;;15.60;99.90;;;;;;6222792;23;20417;-82
2022/10/11 15:53:19;;;;;;;14.93;13.40;;;15.30;99.90;;;;;;6222246;23;20409;-82
2022/10/11 15:55:48;;;;;;;14.60;12.30;;;15.40;99.90;;;;;;6223390;23;20412;-82
2022/10/11 15:58:17;;;;;;;14.33;12.47;;;15.40;99.90;;;;;;6221390;23;20468;-83
2022/10/11 16:00:47;;;;;;;15.53;11.83;;;15.40;99.90;;;;;;6221623;23;20409;-82
2022/10/11 16:03:15;;;;;;;14.93;12.93;;;15.40;99.90;;;;;;6222356;23;20410;-83
2022/10/11 16:05:43;;;;;;;16.93;13.40;;;15.40;99.90;;;;;;6222185;23;20440;-80
2022/10/11 16:08:10;;;;;;;13.60;12.17;;;15.20;99.90;;;;;;6222140;23;20424;-82
2022/10/11 16:10:37;;;;;;;15.13;13.73;;;15.20;99.90;;;;;;6221870;23;20416;-82
2022/10/11 16:13:05;;;;;;;15.70;14.10;;;15.10;99.90;;;;;;6222293;23;20739;-81
2022/10/11 16:15:32;;;;;;;15.57;13.90;;;15.10;99.90;;;;;;6220858;23;20413;-82
2022/10/11 16:18:01;;;;;;;18.73;15.30;;;15.10;99.90;;;;;;6220734;23;20436;-82
2022/10/11 16:20:28;;;;;;;15.03;13.47;;;15.00;99.90;;;;;;6221250;23;20410;-82
2022/10/11 16:22:55;;;;;;;15.90;14.50;;;15.00;99.90;;;;;;6222375;23;20436;-81
2022/10/11 16:25:22;;;;;;;15.40;13.13;;;15.10;99.90;;;;;;6221891;23;20515;-82
2022/10/11 16:27:49;;;;;;;14.10;12.80;;;14.90;99.90;;;;;;6221963;23;20515;-82
2022/10/11 16:30:17;;;;;;;17.30;13.77;;;15.00;99.90;;;;;;6223167;23;20413;-80
2022/10/11 16:32:44;;;;;;;16.77;15.13;;;14.80;99.90;;;;;;6240046;23;20436;-78
2022/10/11 16:35:14;;;;;;;20.17;15.67;;;14.70;99.90;;;;;;6241121;23;20405;-78
2022/10/11 16:37:41;;;;;;;18.43;14.00;;;14.60;99.90;;;;;;6229310;23;20425;-80
2022/10/11 16:40:10;;;;;;;17.27;13.37;;;14.70;99.90;;;;;;6222872;23;20419;-82
2022/10/11 16:42:38;;;;;;;15.93;14.10;;;14.50;99.90;;;;;;6222870;23;20414;-82
2022/10/11 16:45:07;;;;;;;15.97;13.10;;;14.50;99.90;;;;;;6222456;23;20455;-81
2022/10/11 16:47:34;;;;;;;19.27;16.77;;;14.30;99.90;;;;;;6222647;23;20520;-79
2022/10/11 16:50:00;;;;;;;18.73;16.73;;;14.40;99.90;;;;;;6222276;23;20416;-82
2022/10/11 16:52:29;;;;;;;15.70;14.03;;;14.40;99.90;;;;;;6222819;23;20413;-82
2022/10/11 16:54:56;;;;;;;16.60;14.73;;;14.30;99.90;;;;;;6222581;23;20408;-83
2022/10/11 16:57:23;;;;;;;20.80;16.37;;;14.40;99.90;;;;;;6222615;23;20946;-83
2022/10/11 16:59:50;;;;;;;19.63;16.80;;;14.20;99.90;;;;;;6221971;23;20415;-81
2022/10/11 17:02:19;;;;;;;15.83;14.30;;;14.10;99.90;;;;;;6222989;23;20413;-83
2022/10/11 17:04:48;;;;;;;16.97;15.23;;;14.00;99.90;;;;;;6227972;23;20409;-81
2022/10/11 17:07:15;;;;;;;18.00;16.10;;;13.90;99.90;;;;;;6225079;23;20487;-83
2022/10/11 17:09:45;;;;;;;17.10;15.50;;;13.80;99.90;;;;;;6221756;23;20427;-82
2022/10/11 17:12:13;;;;;;;19.50;17.60;;;13.90;99.90;;;;;;6222043;23;20744;-81
2022/10/11 17:14:41;;;;;;;19.10;17.07;;;13.80;99.90;;;;;;6221366;23;20408;-82
2022/10/11 17:17:09;;;;;;;21.30;17.17;;;13.80;99.90;;;;;;6221955;23;20496;-83
2022/10/11 17:19:37;;;;;;;18.83;16.33;;;13.70;99.90;;;;;;6221810;23;20443;-83
2022/10/11 17:22:04;;;;;;;19.53;17.20;;;13.60;99.90;;;;;;6221777;23;20477;-83
2022/10/11 17:24:30;;;;;;;20.47;18.30;;;13.60;99.90;;;;;;6221471;23;20473;-83
2022/10/11 17:26:59;;;;;;;22.97;18.70;;;13.60;99.90;;;;;;6220139;23;20450;-83
2022/10/11 17:29:25;;;;;;;20.50;18.60;;;13.60;99.90;;;;;;6219944;23;20417;-83
2022/10/11 17:31:52;;;;;;;23.50;19.10;;;13.50;99.90;;;;;;6221110;23;20603;-83
2022/10/11 17:34:19;;;;;;;23.47;18.47;;;13.50;99.90;;;;;;6221066;23;20733;-83
2022/10/11 17:36:46;;;;;;;27.83;18.70;;;13.50;99.90;;;;;;6221546;23;20487;-83
2022/10/11 17:39:15;;;;;;;18.80;16.90;;;13.60;99.90;;;;;;6221018;23;20410;-83
2022/10/11 17:41:43;;;;;;;20.50;18.17;;;13.70;99.90;;;;;;6221449;23;20409;-83
2022/10/11 17:44:12;;;;;;;21.17;18.30;;;13.70;99.90;;;;;;6222579;23;20417;-83
2022/10/11 17:46:39;;;;;;;23.93;17.70;;;13.70;99.90;;;;;;6222355;23;20445;-82
2022/10/11 17:49:08;;;;;;;18.97;15.97;;;13.70;99.90;;;;;;6221619;23;20409;-83
2022/10/11 17:51:35;;;;;;;21.17;18.00;;;13.70;99.90;;;;;;6221158;23;20409;-83
2022/10/11 17:54:03;;;;;;;27.40;18.90;;;13.70;99.90;;;;;;6221198;23;20415;-83
2022/10/11 17:56:30;;;;;;;21.17;18.10;;;13.50;99.90;;;;;;6222083;23;20405;-83
2022/10/11 17:58:58;;;;;;;21.80;19.23;;;13.40;99.90;;;;;;6223686;23;20437;-83
2022/10/11 18:01:28;;;;;;;21.33;19.17;;;13.40;99.90;;;;;;6222698;23;20960;-83
2022/10/11 18:03:57;;;;;;;20.27;18.13;;;13.40;99.90;;;;;;6220920;23;20423;-81
2022/10/11 18:06:25;;;;;;;26.37;18.67;;;13.40;99.90;;;;;;6220889;23;20532;-82
2022/10/11 18:08:52;;;;;;;22.97;20.50;;;13.40;99.90;;;;;;6220902;23;20435;-82
2022/10/11 18:11:20;;;;;;;26.60;20.60;;;13.50;99.90;;;;;;6221359;23;20423;-83
2022/10/11 18:13:48;;;;;;;22.50;18.60;;;13.50;99.90;;;;;;6220749;23;20436;-83
2022/10/11 18:16:17;;;;;;;21.20;18.93;;;13.50;99.90;;;;;;6221430;23;20720;-83
2022/10/11 18:18:46;;;;;;;29.73;18.60;;;13.60;99.90;;;;;;6220008;23;20432;-83
2022/10/11 18:21:13;;;;;;;21.60;18.00;;;13.60;99.90;;;;;;6220408;23;20421;-83
2022/10/11 18:23:40;;;;;;;21.60;17.40;;;13.50;99.90;;;;;;6220878;23;20409;-83
2022/10/11 18:26:11;;;;;;;23.17;18.90;;;13.50;99.90;;;;;;6221794;23;20451;-83
2022/10/11 18:28:39;;;;;;;22.00;19.60;;;13.50;99.90;;;;;;6221840;23;20447;-81
2022/10/11 18:31:07;;;;;;;21.13;18.50;;;13.40;99.90;;;;;;6222576;23;20413;-83
2022/10/11 18:33:36;;;;;;;20.40;18.20;;;13.40;99.90;;;;;;6221586;23;20405;-83
2022/10/11 18:36:06;;;;;;;22.53;19.60;;;13.40;99.90;;;;;;6220695;23;20401;-83
2022/10/11 18:38:33;;;;;;;23.53;18.83;;;13.40;99.90;;;;;;6221199;23;20425;-84
2022/10/11 18:41:04;;;;;;;24.20;21.00;;;13.50;99.90;;;;;;6222254;23;20418;-82
2022/10/11 18:43:31;;;;;;;20.67;18.27;;;13.60;99.90;;;;;;6223281;23;20846;-83
2022/10/11 18:46:04;;;;;;;22.00;19.80;;;13.70;99.90;;;;;;6224670;23;20446;-81
2022/10/11 18:48:32;;;;;;;21.97;19.73;;;13.70;99.90;;;;;;6223133;23;20487;-82
2022/10/11 18:51:04;;;;;;;18.77;16.53;;;13.70;99.90;;;;;;6224774;23;20408;-78
2022/10/11 18:53:32;;;;;;;23.93;19.53;;;13.70;99.90;;;;;;6224322;23;20425;-81
2022/10/11 18:55:59;;;;;;;22.80;19.80;;;13.70;99.90;;;;;;6223570;23;20464;-82
2022/10/11 18:58:28;;;;;;;22.40;18.80;;;13.80;99.90;;;;;;6224196;23;20431;-83
2022/10/11 19:00:55;;;;;;;20.30;17.50;;;13.80;99.90;;;;;;6222321;23;20410;-83
2022/10/11 19:03:22;;;;;;;24.13;18.67;;;13.70;99.90;;;;;;6221304;23;20922;-83
2022/10/11 19:05:48;;;;;;;24.97;19.63;;;13.80;99.90;;;;;;6221352;23;20444;-83
2022/10/11 19:08:16;;;;;;;28.80;19.87;;;13.90;99.90;;;;;;6223200;23;20435;-81
2022/10/11 19:10:43;;;;;;;25.27;19.43;;;13.70;99.90;;;;;;6223039;23;20412;-82
2022/10/11 19:13:10;;;;;;;22.57;19.60;;;13.70;99.90;;;;;;6223615;23;20413;-83
2022/10/11 19:15:37;;;;;;;22.90;18.20;;;13.60;99.90;;;;;;6223190;23;20496;-83
2022/10/11 19:18:03;;;;;;;23.80;20.90;;;13.70;99.90;;;;;;6222276;23;20439;-82
2022/10/11 19:20:30;;;;;;;21.50;17.67;;;13.60;99.90;;;;;;6223412;23;20413;-83
2022/10/11 19:22:57;;;;;;;22.73;18.60;;;13.70;99.90;;;;;;6223443;23;20942;-82
2022/10/11 19:25:25;;;;;;;23.80;19.93;;;13.80;99.90;;;;;;6223407;23;20412;-83
2022/10/11 19:27:52;;;;;;;21.57;19.27;;;13.90;99.90;;;;;;6231223;23;20453;-80
2022/10/11 19:30:20;;;;;;;22.30;19.93;;;13.80;99.90;;;;;;6235592;23;20389;-81
2022/10/11 19:32:47;;;;;;;21.30;18.33;;;13.80;99.90;;;;;;6231177;23;20416;-82
2022/10/11 19:35:16;;;;;;;21.63;19.43;;;13.90;99.90;;;;;;6222191;23;20413;-81
2022/10/11 19:37:43;;;;;;;22.77;19.50;;;14.10;99.90;;;;;;6222239;23;20421;-82
2022/10/11 19:40:11;;;;;;;23.33;19.00;;;14.10;99.90;;;;;;6222258;23;20413;-82
2022/10/11 19:42:39;;;;;;;28.10;18.90;;;14.20;99.90;;;;;;6222982;23;20409;-82
2022/10/11 19:45:07;;;;;;;21.37;19.10;;;14.30;99.90;;;;;;6221677;23;20413;-83
2022/10/11 19:47:34;;;;;;;23.27;19.00;;;14.30;99.90;;;;;;6222152;23;20484;-80
2022/10/11 19:50:00;;;;;;;25.27;19.50;;;14.30;99.90;;;;;;6222381;23;20417;-80
2022/10/11 19:52:27;;;;;;;22.57;18.40;;;14.20;99.90;;;;;;6222566;23;20405;-82
2022/10/11 19:54:54;;;;;;;20.13;18.10;;;14.20;99.90;;;;;;6222823;23;20415;-83
2022/10/11 19:57:20;;;;;;;21.43;19.13;;;14.20;99.90;;;;;;6222163;23;20435;-83
2022/10/11 19:59:48;;;;;;;22.57;18.57;;;14.10;99.90;;;;;;6221444;23;20416;-83
2022/10/11 20:02:15;;;;;;;21.70;17.53;;;14.10;99.90;;;;;;6222242;23;20413;-83
2022/10/11 20:04:42;;;;;;;25.17;22.37;;;14.10;99.90;;;;;;6222157;23;20493;-83
2022/10/11 20:07:09;;;;;;;24.00;21.50;;;14.10;99.90;;;;;;6221652;23;20471;-83
2022/10/11 20:09:36;;;;;;;22.80;20.40;;;14.00;99.90;;;;;;6221978;23;20416;-83
2022/10/11 20:12:03;;;;;;;23.37;20.97;;;14.00;99.90;;;;;;6221721;23;20446;-82